Time;durP1;ratioP1;P1;durP2;ratioP2;P2;SDS_P1;SDS_P2;PMS_P1;PMS_P2;Temp;Humidity;BMP_temperature;BMP_pressure;BME280_temperature;BME280_humidity;BME280_pressure;Samples;Min_cycle;Max_cycle;Signal;HPM_P1;HPM_P2
2022/09/25 00:01:23;;;;;;;19.25;10.95;;;;;;;15.91;56.25;100471.75;5053659;28;20113;-67
2022/09/25 00:03:48;;;;;;;20.38;11.93;;;;;;;15.86;56.31;100465.81;5052884;28;20055;-66
2022/09/25 00:06:17;;;;;;;17.63;9.73;;;;;;;15.91;56.31;100466.47;5039978;28;20476;-68
2022/09/25 00:08:43;;;;;;;18.42;10.35;;;;;;;15.82;56.36;100458.91;5053505;28;20376;-68
2022/09/25 00:11:14;;;;;;;19.88;10.20;;;;;;;15.82;56.29;100466.84;5041394;28;20033;-68
2022/09/25 00:13:41;;;;;;;14.43;8.57;;;;;;;15.75;56.45;100463.59;5052692;28;20033;-66
2022/09/25 00:16:10;;;;;;;13.95;8.77;;;;;;;15.75;56.43;100460.94;5053530;28;20037;-68
2022/09/25 00:21:19;;;;;;;12.93;8.07;;;;;;;15.81;55.96;100459.00;5052129;28;20048;-67
2022/09/25 00:23:45;;;;;;;12.13;7.57;;;;;;;15.82;55.67;100456.25;5053096;28;20029;-68
2022/09/25 00:26:13;;;;;;;15.10;9.38;;;;;;;15.85;55.63;100450.84;5035167;28;20042;-68
2022/09/25 00:28:41;;;;;;;13.88;8.70;;;;;;;15.85;55.70;100449.97;5033567;28;20029;-67
2022/09/25 00:31:08;;;;;;;15.02;9.13;;;;;;;15.82;55.75;100458.91;5033711;28;20040;-67
2022/09/25 00:33:35;;;;;;;10.98;7.72;;;;;;;15.74;55.56;100453.94;5033483;28;20389;-67
2022/09/25 00:36:03;;;;;;;13.55;7.88;;;;;;;15.72;55.51;100455.78;5033374;28;20041;-66
2022/09/25 00:38:30;;;;;;;12.98;8.65;;;;;;;15.69;55.85;100455.06;5043141;28;20464;-66
2022/09/25 00:40:56;;;;;;;14.18;9.02;;;;;;;15.58;56.27;100449.31;5053315;28;20461;-66
2022/09/25 00:43:43;;;;;;;16.55;8.60;;;;;;;15.55;56.78;100447.63;5052767;28;20072;-64
2022/09/25 00:46:21;;;;;;;11.63;8.20;;;;;;;15.50;56.82;100444.31;5051404;28;20075;-66
2022/09/25 00:49:06;;;;;;;15.57;9.25;;;;;;;15.52;56.83;100451.28;5053250;28;20041;-68
2022/09/25 00:51:43;;;;;;;12.10;8.15;;;;;;;15.38;57.46;100444.81;5050215;28;20104;-66
2022/09/25 00:54:16;;;;;;;11.77;7.45;;;;;;;15.26;57.57;100441.75;5053063;28;20033;-66
2022/09/25 00:56:43;;;;;;;10.80;7.05;;;;;;;15.28;57.68;100433.75;5053280;28;20032;-66
2022/09/25 00:59:15;;;;;;;14.90;7.95;;;;;;;15.29;57.59;100435.47;5050035;28;20047;-67
2022/09/25 01:01:41;;;;;;;17.50;10.47;;;;;;;15.39;57.27;100441.25;5050743;28;20036;-67
2022/09/25 01:04:07;;;;;;;15.57;9.30;;;;;;;15.29;57.54;100443.41;5050904;28;20029;-67
2022/09/25 01:06:34;;;;;;;14.80;9.45;;;;;;;15.32;57.38;100438.00;5052614;28;20484;-67
2022/09/25 01:09:00;;;;;;;15.02;9.00;;;;;;;15.38;57.21;100428.94;5052967;28;20036;-67
2022/09/25 01:11:25;;;;;;;17.83;11.52;;;;;;;15.47;57.02;100432.06;5051298;28;20033;-67
2022/09/25 01:13:57;;;;;;;14.10;9.65;;;;;;;15.44;57.08;100429.56;5053809;28;20033;-67
2022/09/25 01:16:51;;;;;;;15.52;10.02;;;;;;;15.42;57.32;100430.53;5053278;28;20033;-66
2022/09/25 01:19:22;;;;;;;13.77;9.63;;;;;;;15.19;57.83;100429.66;5045685;28;20128;-68
2022/09/25 01:22:12;;;;;;;13.95;8.90;;;;;;;15.24;58.60;100440.94;5056440;28;20427;-66
2022/09/25 01:24:57;;;;;;;16.60;8.20;;;;;;;15.23;59.02;100435.69;5049556;28;20113;-67
2022/09/25 01:27:44;;;;;;;13.20;8.80;;;;;;;15.32;58.78;100435.34;5055041;28;20381;-67
2022/09/25 01:30:14;;;;;;;12.23;8.50;;;;;;;15.25;58.38;100437.38;5054888;28;20404;-67
2022/09/25 01:32:50;;;;;;;16.75;9.73;;;;;;;15.20;58.89;100434.06;5056569;28;20041;-66
2022/09/25 01:35:40;;;;;;;16.40;9.98;;;;;;;15.15;59.76;100416.63;5056397;28;20025;-66
2022/09/25 01:38:24;;;;;;;13.18;8.63;;;;;;;15.14;59.67;100430.78;5036600;28;20040;-66
2022/09/25 01:41:16;;;;;;;13.43;8.98;;;;;;;15.18;59.10;100432.38;5036175;28;20109;-66
2022/09/25 01:44:05;;;;;;;12.57;8.95;;;;;;;15.23;59.43;100427.75;5053585;28;20132;-67
2022/09/25 01:46:41;;;;;;;13.40;9.02;;;;;;;15.33;58.86;100423.84;5055938;28;20025;-66
2022/09/25 01:49:12;;;;;;;12.27;8.98;;;;;;;15.31;58.91;100432.75;5053083;28;20037;-65
2022/09/25 01:51:42;;;;;;;16.38;11.10;;;;;;;15.23;59.31;100423.31;5038852;28;20033;-66
2022/09/25 01:54:13;;;;;;;15.68;10.80;;;;;;;15.27;59.19;100426.72;5055851;28;20035;-68
2022/09/25 01:57:04;;;;;;;17.85;12.38;;;;;;;15.34;59.29;100424.69;5054709;28;20029;-67
2022/09/25 01:59:39;;;;;;;15.98;11.25;;;;;;;15.34;59.12;100420.25;5036660;28;20468;-66
2022/09/25 02:02:09;;;;;;;15.48;10.88;;;;;;;15.36;59.08;100426.38;5054627;28;20044;-67
2022/09/25 02:04:45;;;;;;;14.90;10.23;;;;;;;15.38;59.01;100418.34;5055688;28;20029;-67
2022/09/25 02:07:16;;;;;;;13.20;9.73;;;;;;;15.34;58.95;100428.19;5054090;28;20120;-67
2022/09/25 02:09:51;;;;;;;13.70;9.45;;;;;;;15.37;58.91;100414.84;5056066;28;20104;-67
2022/09/25 02:12:33;;;;;;;17.02;11.05;;;;;;;15.41;58.69;100420.88;5055875;28;20116;-67
2022/09/25 02:15:04;;;;;;;17.05;11.57;;;;;;;15.36;58.72;100415.78;5053444;28;20472;-67
2022/09/25 02:20:32;;;;;;;15.27;11.27;;;;;;;15.39;58.43;100415.63;5044799;28;20067;-67
2022/09/25 02:23:22;;;;;;;17.00;11.90;;;;;;;15.44;58.22;100405.72;5055329;28;20450;-67
2022/09/25 02:25:59;;;;;;;17.20;11.20;;;;;;;15.42;58.31;100415.50;5053019;28;20029;-67
2022/09/25 02:28:24;;;;;;;18.13;12.10;;;;;;;15.42;58.17;100404.06;5054069;28;20460;-67
2022/09/25 02:30:53;;;;;;;21.70;12.10;;;;;;;15.41;58.24;100407.63;5055104;28;20068;-67
2022/09/25 02:33:19;;;;;;;19.20;12.10;;;;;;;15.40;58.20;100411.19;5037962;28;20512;-67
2022/09/25 02:35:45;;;;;;;22.75;13.20;;;;;;;15.37;58.23;100400.75;5035434;28;20045;-67
2022/09/25 02:38:10;;;;;;;18.30;11.80;;;;;;;15.40;58.21;100401.50;5039984;28;20113;-66
2022/09/25 02:41:14;;;;;;;18.40;12.02;;;;;;;15.36;58.46;100393.72;5053890;28;20039;-66
2022/09/25 02:44:04;;;;;;;17.63;11.75;;;;;;;15.32;58.50;100403.59;5033455;28;20057;-66
2022/09/25 02:46:54;;;;;;;17.75;12.70;;;;;;;15.27;58.64;100397.59;5053663;28;20041;-66
2022/09/25 02:49:32;;;;;;;19.85;11.50;;;;;;;15.23;58.62;100396.00;5054788;28;20079;-67
2022/09/25 02:52:06;;;;;;;17.05;11.73;;;;;;;15.16;58.75;100395.41;5053759;28;20444;-66
2022/09/25 02:54:43;;;;;;;16.55;11.93;;;;;;;15.15;58.62;100396.31;5054849;28;20060;-67
2022/09/25 02:57:18;;;;;;;17.13;11.95;;;;;;;15.21;58.50;100397.88;5052576;28;20365;-67
2022/09/25 02:59:51;;;;;;;17.67;13.30;;;;;;;15.19;58.38;100394.41;5054833;28;20082;-66
2022/09/25 03:02:18;;;;;;;;;;;;;;;15.17;58.23;100396.25;5053455;28;20048;-66
2022/09/25 03:04:47;;;;;;;15.50;11.18;;;;;;;15.19;58.21;100397.91;5054670;28;19938;-67
2022/09/25 03:07:14;;;;;;;18.23;12.15;;;;;;;15.25;58.08;100396.81;5054542;28;20100;-66
2022/09/25 03:09:45;;;;;;;19.15;12.32;;;;;;;15.25;58.00;100388.88;5035742;28;20548;-66
2022/09/25 03:12:11;;;;;;;18.05;12.65;;;;;;;15.19;58.17;100397.03;5034825;28;20037;-66
2022/09/25 03:14:37;;;;;;;17.00;11.95;;;;;;;15.12;58.21;100393.81;5034708;28;20037;-66
2022/09/25 03:17:06;;;;;;;20.35;12.50;;;;;;;15.11;58.29;100388.56;5034692;28;20042;-66
2022/09/25 03:19:33;;;;;;;17.77;11.77;;;;;;;15.09;58.38;100385.97;5034996;28;20033;-66
2022/09/25 03:21:59;;;;;;;17.73;12.55;;;;;;;15.06;58.51;100396.69;5054164;28;20072;-66
2022/09/25 03:24:25;;;;;;;15.48;11.52;;;;;;;14.98;58.70;100394.34;5053866;28;20064;-66
2022/09/25 03:26:50;;;;;;;19.65;11.90;;;;;;;14.96;58.77;100388.25;5038077;28;20045;-67
2022/09/25 03:29:16;;;;;;;14.20;11.05;;;;;;;14.94;58.87;100398.03;5045254;28;20423;-67
2022/09/25 03:31:44;;;;;;;16.75;10.40;;;;;;;14.84;59.10;100396.69;5052074;28;20032;-67
2022/09/25 03:34:11;;;;;;;16.67;11.82;;;;;;;14.77;59.30;100396.06;5054089;28;20033;-66
2022/09/25 03:36:37;;;;;;;18.27;12.60;;;;;;;14.75;59.32;100392.59;5053788;28;20526;-67
2022/09/25 03:39:03;;;;;;;19.85;12.57;;;;;;;14.73;59.45;100398.88;5033841;28;20029;-68
2022/09/25 03:41:30;;;;;;;20.95;14.55;;;;;;;14.65;59.50;100385.09;5034178;28;20038;-68
2022/09/25 03:43:56;;;;;;;22.52;14.05;;;;;;;14.58;59.73;100388.88;5043268;28;20067;-66
2022/09/25 03:46:24;;;;;;;21.45;13.95;;;;;;;14.60;59.67;100382.63;5053904;28;20036;-66
2022/09/25 03:48:52;;;;;;;20.70;13.10;;;;;;;14.51;60.02;100382.94;5052611;28;20060;-66
2022/09/25 03:51:18;;;;;;;19.25;13.30;;;;;;;14.50;60.03;100382.09;5053817;28;20032;-66
2022/09/25 03:53:44;;;;;;;17.75;12.80;;;;;;;14.42;60.29;100378.84;5052632;28;20037;-64
2022/09/25 03:56:12;;;;;;;21.55;15.55;;;;;;;14.36;60.53;100383.47;5036038;28;20076;-67
2022/09/25 03:58:37;;;;;;;19.15;13.10;;;;;;;14.37;60.50;100380.81;5031631;28;20048;-66
2022/09/25 04:01:03;;;;;;;19.17;12.70;;;;;;;14.37;60.52;100383.44;5048803;28;20045;-67
2022/09/25 04:03:30;;;;;;;21.58;13.18;;;;;;;14.39;60.47;100380.72;5053519;28;20036;-68
2022/09/25 04:05:57;;;;;;;16.30;11.30;;;;;;;14.44;60.38;100384.94;5053488;28;20465;-66
2022/09/25 04:08:25;;;;;;;21.20;14.18;;;;;;;14.46;60.41;100388.38;5052359;28;20073;-67
2022/09/25 04:10:51;;;;;;;20.13;13.70;;;;;;;14.46;60.30;100390.16;5053492;28;20037;-67
2022/09/25 04:13:18;;;;;;;18.15;12.68;;;;;;;14.52;60.22;100380.25;5052364;28;20040;-67
2022/09/25 04:15:44;;;;;;;17.85;12.02;;;;;;;14.60;59.99;100387.03;5051793;28;20037;-67
2022/09/25 04:18:09;;;;;;;16.95;12.02;;;;;;;14.69;59.84;100384.91;5052389;28;20048;-67
2022/09/25 04:20:37;;;;;;;19.27;13.65;;;;;;;14.72;59.69;100376.84;5048337;28;20481;-67
2022/09/25 04:23:02;;;;;;;18.63;13.10;;;;;;;14.77;59.65;100384.63;5032821;28;20026;-67
2022/09/25 04:25:28;;;;;;;18.08;12.07;;;;;;;14.81;59.61;100386.22;5045206;28;20075;-67
2022/09/25 04:27:55;;;;;;;18.38;13.27;;;;;;;14.83;59.66;100387.00;5045753;28;20430;-67
2022/09/25 04:30:21;;;;;;;16.70;12.30;;;;;;;14.89;59.35;100383.28;5033280;28;20033;-66
2022/09/25 04:35:31;;;;;;;18.42;12.75;;;;;;;14.95;59.25;100386.50;5033269;28;20080;-67
2022/09/25 04:37:56;;;;;;;20.60;13.68;;;;;;;15.02;59.11;100374.78;5033450;28;20072;-67
2022/09/25 04:40:22;;;;;;;18.13;13.00;;;;;;;15.06;58.92;100374.66;5034789;28;20068;-66
2022/09/25 04:42:47;;;;;;;18.15;12.60;;;;;;;14.98;59.12;100389.03;5051423;28;20098;-67
2022/09/25 04:45:13;;;;;;;18.52;12.85;;;;;;;14.92;59.41;100377.84;5053021;28;20029;-67
2022/09/25 04:47:39;;;;;;;18.52;12.88;;;;;;;14.88;59.63;100382.41;5046446;28;20377;-67
2022/09/25 04:50:04;;;;;;;18.63;12.93;;;;;;;14.80;59.84;100371.25;5034499;28;20389;-67
2022/09/25 04:52:30;;;;;;;16.67;11.57;;;;;;;14.80;59.92;100368.59;5056585;28;20064;-67
2022/09/25 04:54:56;;;;;;;23.13;15.10;;;;;;;14.82;60.04;100376.50;5057030;28;20377;-66
2022/09/25 04:57:22;;;;;;;20.90;15.10;;;;;;;14.85;60.01;100373.72;5057017;28;20449;-66
2022/09/25 04:59:49;;;;;;;22.73;15.43;;;;;;;14.87;59.96;100383.31;5054378;28;20067;-68
2022/09/25 05:02:15;;;;;;;19.55;14.10;;;;;;;14.89;59.99;100373.56;5056910;28;20041;-68
2022/09/25 05:04:40;;;;;;;23.63;15.63;;;;;;;14.88;60.10;100374.47;5045838;28;20048;-68
2022/09/25 05:07:06;;;;;;;20.98;14.85;;;;;;;14.95;59.92;100378.56;5070895;28;20072;-66
2022/09/25 05:09:32;;;;;;;20.13;14.35;;;;;;;14.97;59.99;100376.75;5056415;28;20037;-66
2022/09/25 05:11:57;;;;;;;22.00;13.60;;;;;;;15.03;59.85;100376.50;5054230;28;20045;-67
2022/09/25 05:14:23;;;;;;;18.73;12.82;;;;;;;15.03;59.84;100376.50;5056828;28;20040;-67
2022/09/25 05:16:48;;;;;;;20.25;13.25;;;;;;;15.15;59.43;100383.06;5049784;28;20045;-68
2022/09/25 05:19:14;;;;;;;20.13;13.85;;;;;;;15.26;59.39;100374.72;5041119;28;20036;-68
2022/09/25 05:21:41;;;;;;;17.00;12.40;;;;;;;15.21;59.48;100385.50;5042093;28;20370;-66
2022/09/25 05:24:10;;;;;;;15.35;11.43;;;;;;;15.29;59.35;100377.22;5036766;28;20493;-67
2022/09/25 05:26:36;;;;;;;16.23;11.25;;;;;;;15.39;59.12;100381.22;5056275;28;20111;-67
2022/09/25 05:29:03;;;;;;;15.38;12.18;;;;;;;15.51;58.83;100380.69;5039672;28;20068;-68
2022/09/25 05:31:29;;;;;;;18.00;12.80;;;;;;;15.57;58.68;100381.38;5036112;28;20036;-68
2022/09/25 05:33:55;;;;;;;15.27;12.07;;;;;;;15.66;58.61;100387.16;5036222;28;20026;-67
2022/09/25 05:36:20;;;;;;;18.20;11.98;;;;;;;15.73;58.43;100383.34;5036167;28;20116;-68
2022/09/25 05:38:45;;;;;;;22.33;14.50;;;;;;;15.80;58.23;100383.94;5068155;28;20117;-68
2022/09/25 05:41:11;;;;;;;17.65;11.77;;;;;;;15.84;58.05;100382.88;5036378;28;20033;-68
2022/09/25 05:43:42;;;;;;;18.17;12.88;;;;;;;15.82;57.87;100386.53;5036844;28;20100;-67
2022/09/25 05:46:08;;;;;;;15.52;11.35;;;;;;;15.85;57.65;100391.69;5037470;28;20087;-68
2022/09/25 05:48:34;;;;;;;18.13;11.60;;;;;;;15.91;57.39;100384.31;5051709;28;20472;-67
2022/09/25 05:51:00;;;;;;;16.58;11.70;;;;;;;15.90;57.31;100387.91;5054840;28;20033;-67
2022/09/25 05:53:26;;;;;;;18.80;13.30;;;;;;;15.92;57.28;100393.16;5055247;28;20025;-66
2022/09/25 05:55:53;;;;;;;18.13;13.40;;;;;;;16.10;56.73;100383.53;5055960;28;20021;-68
2022/09/25 05:58:20;;;;;;;20.90;14.30;;;;;;;16.07;56.74;100386.31;5049351;28;20098;-67
2022/09/25 06:00:46;;;;;;;19.42;14.13;;;;;;;16.09;56.48;100385.31;5054573;28;20064;-67
2022/09/25 06:03:12;;;;;;;18.52;13.38;;;;;;;16.08;56.45;100382.72;5055773;28;20028;-67
2022/09/25 06:05:39;;;;;;;18.92;13.90;;;;;;;16.07;56.58;100381.00;5042196;28;20051;-68
2022/09/25 06:08:05;;;;;;;19.13;14.05;;;;;;;16.06;56.42;100381.94;5046747;28;20067;-68
2022/09/25 06:10:31;;;;;;;20.40;13.43;;;;;;;16.06;56.28;100390.75;5054780;28;20039;-67
2022/09/25 06:12:59;;;;;;;16.67;12.05;;;;;;;16.12;56.18;100382.53;5051240;28;20045;-68
2022/09/25 06:15:26;;;;;;;17.77;13.10;;;;;;;16.19;55.97;100380.44;5034180;28;20070;-67
2022/09/25 06:17:52;;;;;;;19.33;13.30;;;;;;;16.21;55.80;100383.91;5048643;28;20091;-67
2022/09/25 06:20:17;;;;;;;15.85;11.77;;;;;;;16.21;55.96;100383.91;5055224;28;20044;-68
2022/09/25 06:22:46;;;;;;;18.88;12.90;;;;;;;16.35;55.60;100383.28;5054234;28;20048;-68
2022/09/25 06:25:14;;;;;;;17.75;12.60;;;;;;;16.35;55.48;100385.94;5053434;28;20124;-68
2022/09/25 06:27:39;;;;;;;19.40;13.90;;;;;;;16.41;55.29;100380.34;5053410;28;20040;-67
2022/09/25 06:30:05;;;;;;;19.23;14.05;;;;;;;16.68;54.63;100383.53;5040612;28;20033;-67
2022/09/25 06:32:30;;;;;;;17.85;12.77;;;;;;;16.65;54.38;100381.88;5040110;28;20029;-68
2022/09/25 06:34:56;;;;;;;17.80;13.52;;;;;;;16.88;53.88;100385.28;5043905;28;20392;-68
2022/09/25 06:37:21;;;;;;;15.20;11.23;;;;;;;16.89;54.19;100382.53;5053920;28;20473;-67
2022/09/25 06:39:46;;;;;;;17.60;11.82;;;;;;;17.15;53.89;100378.63;5043637;28;20037;-69
2022/09/25 06:42:12;;;;;;;15.93;12.20;;;;;;;17.32;53.31;100376.94;5042566;28;20123;-69
2022/09/25 06:44:38;;;;;;;14.38;9.90;;;;;;;17.45;53.66;100375.41;5081511;28;20469;-69
2022/09/25 06:47:03;;;;;;;17.45;11.85;;;;;;;17.52;53.07;100386.59;5041168;28;20036;-68
2022/09/25 06:49:28;;;;;;;15.52;11.80;;;;;;;17.71;52.07;100382.03;5046208;28;20388;-68
2022/09/25 06:51:54;;;;;;;16.40;11.13;;;;;;;17.84;51.55;100375.19;5055243;28;20045;-69
2022/09/25 06:54:19;;;;;;;18.20;12.90;;;;;;;17.88;51.05;100378.56;5056710;28;20047;-65
2022/09/25 06:56:48;;;;;;;16.85;11.85;;;;;;;18.00;50.95;100371.75;5054899;28;20032;-63
2022/09/25 06:59:14;;;;;;;16.95;12.27;;;;;;;18.16;50.36;100378.81;5053375;28;20033;-62
2022/09/25 07:01:39;;;;;;;16.10;12.15;;;;;;;18.28;49.60;100377.31;5054892;28;20033;-63
2022/09/25 07:04:05;;;;;;;18.20;12.15;;;;;;;18.33;49.45;100369.94;5053583;28;20029;-62
2022/09/25 07:06:32;;;;;;;18.17;12.75;;;;;;;18.29;49.52;100372.84;5052233;28;20484;-62
2022/09/25 07:08:58;;;;;;;16.10;12.63;;;;;;;18.24;49.72;100377.56;5037452;28;20041;-62
2022/09/25 07:11:26;;;;;;;14.40;11.27;;;;;;;18.35;49.71;100378.72;5046451;28;20094;-61
2022/09/25 07:13:55;;;;;;;16.25;11.93;;;;;;;18.50;48.73;100370.81;5053805;28;20033;-63
2022/09/25 07:16:24;;;;;;;19.08;11.38;;;;;;;18.50;48.32;100381.47;5051183;28;20029;-63
2022/09/25 07:18:52;;;;;;;15.48;10.82;;;;;;;18.48;48.38;100378.03;5051203;28;20032;-64
2022/09/25 07:21:20;;;;;;;16.33;10.80;;;;;;;18.57;48.29;100377.53;5054185;28;20087;-60
2022/09/25 07:23:50;;;;;;;12.63;10.20;;;;;;;18.64;48.03;100378.94;5053556;28;20112;-60
2022/09/25 07:26:27;;;;;;;14.07;9.38;;;;;;;18.72;47.23;100378.53;5054012;28;20098;-60
2022/09/25 07:28:54;;;;;;;12.88;9.73;;;;;;;18.81;47.46;100376.22;5057767;28;20048;-60
2022/09/25 07:31:22;;;;;;;13.98;9.88;;;;;;;18.93;47.24;100377.31;5055785;28;20037;-60
2022/09/25 07:33:48;;;;;;;16.23;9.82;;;;;;;19.03;46.84;100370.56;5063462;28;20033;-61
2022/09/25 07:36:15;;;;;;;14.48;10.82;;;;;;;19.08;46.59;100364.97;5053707;28;20036;-61
2022/09/25 07:38:41;;;;;;;15.95;11.30;;;;;;;19.16;46.26;100370.69;5054094;28;20037;-60
2022/09/25 07:41:10;;;;;;;13.68;10.38;;;;;;;19.22;46.08;100373.00;5038368;28;20033;-61
2022/09/25 07:43:37;;;;;;;14.55;10.25;;;;;;;19.20;46.26;100372.25;5041116;28;20045;-59
2022/09/25 07:46:03;;;;;;;12.27;9.52;;;;;;;19.25;46.46;100364.84;5049070;28;20037;-59
2022/09/25 07:48:30;;;;;;;15.23;10.70;;;;;;;19.44;45.84;100373.47;5051258;28;20071;-59
2022/09/25 07:51:03;;;;;;;16.63;11.43;;;;;;;19.56;45.66;100369.25;5052406;28;20791;-60
2022/09/25 07:53:28;;;;;;;15.38;10.95;;;;;;;19.49;45.77;100372.34;5050185;28;20062;-59
2022/09/25 07:56:01;;;;;;;14.35;11.00;;;;;;;19.51;45.03;100363.31;5064700;28;20040;-58
2022/09/25 07:58:27;;;;;;;12.98;9.52;;;;;;;19.56;45.79;100373.72;5033964;28;20095;-60
2022/09/25 08:00:57;;;;;;;13.88;10.35;;;;;;;19.60;45.84;100369.91;5046257;28;20113;-61
2022/09/25 08:03:23;;;;;;;14.35;10.48;;;;;;;19.65;45.87;100363.38;5038113;28;20025;-60
2022/09/25 08:06:03;;;;;;;12.95;9.32;;;;;;;19.81;44.19;100363.31;5036418;28;20055;-58
2022/09/25 08:08:29;;;;;;;14.85;10.02;;;;;;;19.94;45.20;100369.63;5047699;28;20021;-60
2022/09/25 08:11:06;;;;;;;16.23;12.23;;;;;;;19.74;43.66;100361.13;5051403;28;20396;-60
2022/09/25 08:13:32;;;;;;;11.05;9.15;;;;;;;19.73;45.05;100359.41;5048221;28;20032;-59
2022/09/25 08:16:01;;;;;;;13.18;10.32;;;;;;;19.75;45.12;100368.16;5049238;28;20388;-59
2022/09/25 08:18:26;;;;;;;15.45;10.65;;;;;;;19.76;45.16;100359.22;5052175;28;20063;-58
2022/09/25 08:20:52;;;;;;;13.43;10.35;;;;;;;20.08;44.42;100362.59;5048774;28;20033;-59
2022/09/25 08:23:17;;;;;;;12.45;9.95;;;;;;;19.87;44.84;100356.78;5046492;28;20586;-58
2022/09/25 08:25:47;;;;;;;13.30;10.95;;;;;;;19.84;44.79;100352.47;5067966;28;20064;-60
2022/09/25 08:28:12;;;;;;;12.65;9.18;;;;;;;19.93;45.57;100351.91;5054976;28;20035;-60
2022/09/25 08:30:38;;;;;;;12.85;10.02;;;;;;;20.04;45.29;100353.94;5055269;28;20033;-60
2022/09/25 08:33:03;;;;;;;12.57;8.98;;;;;;;20.11;45.68;100349.94;5037861;28;20037;-59
2022/09/25 08:35:28;;;;;;;15.60;9.35;;;;;;;20.08;45.76;100350.13;5037485;28;20044;-59
2022/09/25 08:37:56;;;;;;;15.23;10.40;;;;;;;20.17;45.15;100349.53;5038599;28;20122;-59
2022/09/25 08:40:25;;;;;;;13.27;7.00;;;;;;;20.10;47.46;100344.69;5056571;28;20033;-60
2022/09/25 08:42:53;;;;;;;12.27;9.10;;;;;;;20.26;47.35;100349.94;5057191;28;20059;-59
2022/09/25 08:51:27;;;;;;;12.75;9.88;;;;;;;20.36;44.91;100338.59;4995336;28;20050;-59
2022/09/25 08:53:53;;;;;;;15.32;11.55;;;;;;;20.31;45.26;100332.69;5012869;28;20042;-59
2022/09/25 08:56:18;;;;;;;17.00;12.70;;;;;;;20.38;44.71;100334.00;5032765;28;20051;-59
2022/09/25 08:58:51;;;;;;;19.80;14.80;;;;;;;20.38;44.72;100335.81;5058117;28;20128;-59
2022/09/25 09:01:21;;;;;;;14.73;10.25;;;;;;;20.60;45.68;100341.56;5056390;28;20041;-59
2022/09/25 09:04:15;;;;;;;13.85;10.95;;;;;;;20.77;43.39;100332.44;5056734;28;20128;-59
2022/09/25 09:06:42;;;;;;;14.80;10.55;;;;;;;20.69;43.96;100325.91;5036622;28;20377;-60
2022/09/25 09:09:22;;;;;;;17.23;13.13;;;;;;;20.83;42.91;100329.41;5059476;28;20035;-61
2022/09/25 09:11:57;;;;;;;12.05;9.73;;;;;;;20.79;43.92;100319.03;5059093;28;20044;-60
2022/09/25 09:14:28;;;;;;;14.48;11.30;;;;;;;20.84;43.61;100325.75;5056604;28;20116;-59
2022/09/25 09:17:09;;;;;;;14.77;11.73;;;;;;;21.01;43.15;100323.78;5056720;28;20025;-60
2022/09/25 09:19:37;;;;;;;15.88;11.05;;;;;;;21.10;43.58;100324.03;5036631;28;20038;-59
2022/09/25 09:22:09;;;;;;;14.32;10.07;;;;;;;21.22;44.28;100325.03;5037215;28;20052;-60
2022/09/25 09:24:53;;;;;;;12.65;8.43;;;;;;;21.40;44.38;100323.84;5048817;28;20029;-60
2022/09/25 09:27:54;;;;;;;13.18;9.68;;;;;;;21.50;44.09;100309.84;5056418;28;20037;-60
2022/09/25 09:30:27;;;;;;;13.93;9.98;;;;;;;21.67;42.98;100317.59;5044856;28;20067;-60
2022/09/25 09:33:16;;;;;;;;;;;;;;;21.93;43.50;100312.22;5048863;28;20037;-59
2022/09/25 09:36:00;;;;;;;13.07;8.68;;;;;;;22.14;43.42;100313.41;5069273;28;19954;-59
2022/09/25 09:39:06;;;;;;;14.57;10.00;;;;;;;22.29;41.75;100309.66;5068211;28;20041;-59
2022/09/25 09:41:37;;;;;;;13.88;10.90;;;;;;;22.42;41.99;100309.63;5030470;28;20547;-59
2022/09/25 09:44:10;;;;;;;13.63;10.23;;;;;;;22.52;41.67;100309.84;5056247;28;20047;-59
2022/09/25 09:46:48;;;;;;;12.45;9.88;;;;;;;22.77;41.27;100307.06;5054916;28;20033;-59
2022/09/25 09:49:25;;;;;;;13.07;9.82;;;;;;;22.87;41.13;100305.44;5055647;28;20033;-60
2022/09/25 09:52:00;;;;;;;12.18;9.45;;;;;;;23.09;40.67;100306.53;5056709;28;20061;-59
2022/09/25 09:54:35;;;;;;;14.63;10.98;;;;;;;23.12;40.48;100306.31;5054225;28;20033;-59
2022/09/25 09:57:05;;;;;;;13.65;8.93;;;;;;;23.11;40.91;100299.25;5053542;28;20032;-60
2022/09/25 09:59:52;;;;;;;13.18;9.82;;;;;;;23.23;40.48;100292.97;5055895;28;20057;-60
2022/09/25 10:02:27;;;;;;;12.50;9.98;;;;;;;23.47;40.60;100292.06;5055944;28;20075;-60
2022/09/25 10:04:54;;;;;;;9.38;6.80;;;;;;;23.69;41.73;100296.63;5055677;28;20053;-60
2022/09/25 10:07:22;;;;;;;12.35;8.55;;;;;;;23.87;40.11;100289.00;5055872;28;20040;-58
2022/09/25 10:09:53;;;;;;;11.13;8.35;;;;;;;23.96;40.69;100280.22;5055763;28;20520;-60
2022/09/25 10:12:33;;;;;;;11.18;8.95;;;;;;;24.09;40.22;100279.09;5040871;28;20040;-60
2022/09/25 10:15:14;;;;;;;10.63;7.47;;;;;;;24.16;38.19;100284.84;5035594;28;20065;-60
2022/09/25 10:17:41;;;;;;;9.65;7.80;;;;;;;24.36;39.50;100287.75;5044946;28;20025;-60
2022/09/25 10:20:32;;;;;;;10.30;7.07;;;;;;;24.28;37.24;100275.81;5054411;28;20036;-59
2022/09/25 10:23:01;;;;;;;9.50;7.47;;;;;;;24.32;38.74;100274.59;5054877;28;20029;-59
2022/09/25 10:25:38;;;;;;;9.25;7.47;;;;;;;24.39;37.47;100272.28;5055211;28;20029;-60
2022/09/25 10:28:28;;;;;;;9.50;7.78;;;;;;;24.41;36.49;100266.78;5055580;28;20025;-59
2022/09/25 10:30:54;;;;;;;9.68;6.68;;;;;;;24.45;39.15;100265.56;5047754;28;20049;-59
2022/09/25 10:33:26;;;;;;;8.05;6.65;;;;;;;24.42;38.38;100261.31;5054313;28;20063;-59
2022/09/25 10:35:53;;;;;;;10.60;7.32;;;;;;;24.36;38.32;100256.41;5054988;28;20040;-60
2022/09/25 10:38:33;;;;;;;10.45;7.50;;;;;;;24.19;36.52;100257.78;5054821;28;20047;-60
2022/09/25 10:41:01;;;;;;;9.18;6.88;;;;;;;24.05;38.45;100249.97;5055295;28;20048;-60
2022/09/25 10:43:27;;;;;;;8.25;6.53;;;;;;;23.99;38.83;100253.16;5054622;28;20047;-60
2022/09/25 10:46:07;;;;;;;8.48;6.03;;;;;;;24.01;39.78;100260.06;5054692;28;20116;-60
2022/09/25 10:51:20;;;;;;;7.07;5.68;;;;;;;24.18;39.43;100245.34;5054967;28;20036;-60
2022/09/25 10:54:13;;;;;;;8.68;6.20;;;;;;;24.34;38.30;100240.44;5054482;28;20065;-60
2022/09/25 10:56:39;;;;;;;9.48;6.47;;;;;;;24.44;37.66;100234.31;5054329;28;20044;-59
2022/09/25 10:59:19;;;;;;;9.45;6.68;;;;;;;24.41;36.72;100237.25;5054801;28;20041;-60
2022/09/25 11:01:46;;;;;;;8.55;6.43;;;;;;;24.50;37.40;100237.38;5054647;28;20055;-60
2022/09/25 11:04:23;;;;;;;8.60;6.35;;;;;;;24.49;37.35;100235.66;5054682;28;20116;-60
2022/09/25 11:06:57;;;;;;;8.30;5.25;;;;;;;24.49;39.90;100235.66;5054441;28;20033;-58
2022/09/25 11:09:25;;;;;;;6.95;5.30;;;;;;;24.59;39.25;100233.06;5054444;28;20067;-59
2022/09/25 11:12:22;;;;;;;8.75;5.35;;;;;;;24.60;40.91;100232.09;5054431;28;20067;-60
2022/09/25 11:15:04;;;;;;;8.45;5.20;;;;;;;24.58;36.89;100231.38;5054423;28;20115;-60
2022/09/25 11:17:38;;;;;;;5.43;4.83;;;;;;;24.50;38.78;100228.47;5054279;28;20472;-60
2022/09/25 11:20:31;;;;;;;7.22;5.20;;;;;;;24.36;36.35;100220.66;5053064;28;20377;-59
2022/09/25 11:23:18;;;;;;;6.90;5.28;;;;;;;24.09;38.54;100224.56;5051083;28;20170;-58
2022/09/25 11:26:00;;;;;;;7.00;5.10;;;;;;;23.97;36.63;100214.84;5053741;28;20481;-60
2022/09/25 11:28:48;;;;;;;8.77;4.55;;;;;;;23.74;37.89;100214.84;5041888;28;20069;-60
2022/09/25 11:31:35;;;;;;;7.35;5.07;;;;;;;23.50;38.61;100217.59;5034219;28;20029;-60
2022/09/25 11:34:19;;;;;;;6.13;4.70;;;;;;;23.30;38.98;100213.78;5051091;28;20032;-60
2022/09/25 11:37:17;;;;;;;5.35;4.32;;;;;;;23.08;36.45;100213.72;5053640;28;20037;-60
2022/09/25 11:42:45;;;;;;;4.78;3.72;;;;;;;22.75;40.45;100209.91;5052864;28;20090;-60
2022/09/25 11:45:35;;;;;;;4.82;3.97;;;;;;;22.71;38.30;100202.25;5053926;28;20029;-60
2022/09/25 11:48:20;;;;;;;5.28;3.83;;;;;;;22.59;37.31;100199.50;5053933;28;20461;-59
2022/09/25 11:50:54;;;;;;;8.20;4.25;;;;;;;22.60;39.72;100205.72;5037741;28;20029;-60
2022/09/25 11:53:42;;;;;;;5.90;4.85;;;;;;;22.50;38.58;100191.28;5053042;28;20039;-60